Trimble, Colorado
Current Conditions -  °F | °C
As of 4:53 PM on Saturday 25 Oct 2014 (Local Time) from KDRO Reporting Station
Clear Clear  
Wind Chill: 70°   Ceiling: Unl
Heat Index: 70°   Visibility: 10mi
Dew Point: 30°   Wind: 13mph
Humidity: 23%   Direction: 260°W
Pressure: 30.26"   Gusts: NA
Location:  37.39°N, 107.85°W
Report Text: KDRO 252253Z AUTO 26011KT 10SM CLR 21/M01 A3026 RMK AO2 SLP202 T02111011
Loading
Personal Weather Stations






























Interactive Weather Map
Tropical Storm Tracking
New forecast layout! Learn more

10-Day Weather Forecast

Advertisements
Track Severe Weather on mobile